Terminal Aerodrome Forecast
Issued by NWS Charleston, WV

Current Version | Previous Version | Graphics & Text | Print | Product List | Glossary On
Versions: 1 2 3 4 5 6 7 8 9 10 11 12 13 14 15 16 17 18 19 20 21 22 23 24 25 26
000
FTUS41 KRLX 220200 AAA
TAFCRW
TAF AMD
KCRW 220255Z 2203/2224 00000KT P6SM SKC
     FM220500 00000KT 4SM BR FEW045
     FM220600 00000KT 2SM BR FEW001
     FM220900 00000KT 1/4SM FG OVC001
     FM221230 VRB03KT 1 1/2SM BR FEW002 FEW045
     FM221300 VRB03KT P6SM SCT050=

USA.gov is the U.S. government's official web portal to all federal, state and local government web resources and services.